Airfield :
LOGIN :

Register | Disclaimer

   EN    FR    IT 

 










Legend :    VFR   Marginal VFR   IFR   Intensive IFR   Very Intensive IFR
Visi :
Ceiling :
>= 8 km
>= 3000ft
5 to 8 km
1000 to 3000 ft
1500m to 5 km
500 to 1000 ft
800 to 1500m
200 to 500 ft
< 800m
< 200 ft
Symbols :   Thunderstorms  Fog  Heavy snow  Heavy precipitations  Wind > 20 kt
SIGMETs :     Misc.  Thunderstorms  Icing  Turbulence  Mountain Waves  Volcanic Ashes







- Airport Elevation : 1260 ft
- IATA code : LDE
- Download approach charts


LFBT - Tarbes / Ossun

CURRENT METAR :
  • 181800Z AUTO VRB03KT 9999 ///CB 23/18 Q1018 TEMPO -TSRA

EXPIRED METARs :
  • 181730Z AUTO 32003KT CAVOK 24/18 Q1017 TEMPO -TSRA SCT040CB
  • 181700Z AUTO 32004KT CAVOK 24/18 Q1017 TEMPO -TSRA SCT040CB
  • 181630Z AUTO 33005KT 310V010 9999 ///CB 26/17 Q1017 TEMPO -TSRA
  • 181600Z AUTO VRB03KT CAVOK 28/17 Q1017 TEMPO -TSRA SCT040CB
  • 181530Z AUTO 03003KT 340V100 CAVOK 28/17 Q1017 TEMPO -TSRA SCT040CB
  • 181500Z AUTO 03006KT 360V080 CAVOK 27/16 Q1016 TEMPO -TSRA SCT040CB

TAF TAF LFBT
Valid from the 18 at 18:00 until the 19 at 18:00 UTC


181700Z 1818/1918 18005KT CAVOK
PROB30
TEMPO 1818/1820 -TSRA SCT040CB
TEMPO 1903/1906 BKN006
BECMG 1906/1908 CAVOK
No reported NOTAMs for that airfield.
1 SIGMET reported for the Bordeaux FIR (LFBB) :
 
Embedded thunderstorms
LFBB SIGMET 2 VALID 181620/181800 LFPW
LFBB BORDEAUX FIR/UIR EMBD TS OBS WI N4615 E00300 - N4445 E00245 - N4530 E00200 - N4615 E00300 TOP FL340 STNR NC=



MET'MAP, your aeronautical weather chart ! - Copyright ORBIFLY December 2007 - Disclaimer

ORBIFLY MET'MAP TEAM :

Programming & Development : Alexandra Zaïnal
Concept & Development : Baudouin d'Aumeries
Co-Development & Prog : Marc-Olivier Méhu
Technical & hardware support : Manuel Goepfert

Contact : metmap@orbifly.com




SOURCES & CREDITS :

   NOAA